PWSweather.com
Personal Weather Stations
Station Observations
KMOHERMA2
Stony Hill, Hermann, MO 65041

Stony HillHermann, MO 65041

Lat: 38.527, Lon: -91.414

Elevation: 896

Station Type: Davis Vantage Pro 2

Latest ConditionsUpdated 3:20:15 PM CDT Tuesday, May 21, 2019
Currently Today's Max Today's Min Today's Average
Temperature 66.8°F19.3°C 66.8°F19.3°C 46.6°F8.1°C 50.4°F10.2°C
Dew Point 62.4°F16.9°C 62.6°F17.0°C 45.0°F7.2°C 48.5°F9.2°C
Winds Calm Calm Calm -Calm - - Calm Calm
Wind Gusts -- -- - -
Humidity 86% 95% 83% 93%
Pressure 29.59 in1002.0 mb 29.97 in1014.9 mb 29.59 in1002.0 mb -
Precipitation - 0.74 in18.8 mm - -
Hour Temp Dew Point Humidity Winds Wind Gusts Pressure Precip Precip Rate Daily Precip Total
03:20 PM 66.8°F19.3°C 62.4°F16.9°C 86% Calm Calm -- 29.59 in1002.0 mb 0.00 in0.0 mm 0.00 in0.0 mm 0.74 in18.8 mm
03:15 PM 66.2°F19.0°C 62.6°F17.0°C 88% Calm Calm -- 29.59 in1002.0 mb 0.00 in0.0 mm 0.00 in0.0 mm 0.74 in18.8 mm
03:10 PM 65.2°F18.4°C 61.5°F16.4°C 88% Calm Calm -- 29.60 in1002.4 mb 0.00 in0.0 mm 0.00 in0.0 mm 0.74 in18.8 mm
03:05 PM 64.4°F18.0°C 61.2°F16.2°C 89% Calm Calm -- 29.61 in1002.7 mb 0.00 in0.0 mm 0.00 in0.0 mm 0.74 in18.8 mm
03:00 PM 63.6°F17.6°C 60.4°F15.8°C 89% Calm Calm -- 29.61 in1002.7 mb 0.00 in0.0 mm 0.00 in0.0 mm 0.74 in18.8 mm
02:55 PM 63.2°F17.3°C 60.1°F15.6°C 90% Calm Calm -- 29.62 in1003.0 mb 0.00 in0.0 mm 0.00 in0.0 mm 0.74 in18.8 mm
02:50 PM 62.6°F17.0°C 59.5°F15.3°C 90% Calm Calm -- 29.62 in1003.0 mb 0.00 in0.0 mm 0.00 in0.0 mm 0.74 in18.8 mm
02:45 PM 62.1°F16.7°C 59.0°F15.0°C 90% Calm Calm -- 29.63 in1003.4 mb 0.00 in0.0 mm 0.00 in0.0 mm 0.74 in18.8 mm
02:40 PM 61.7°F16.5°C 59.0°F15.0°C 91% Calm Calm -- 29.63 in1003.4 mb 0.00 in0.0 mm 0.00 in0.0 mm 0.74 in18.8 mm
02:35 PM 60.8°F16.0°C 58.1°F14.5°C 91% Calm Calm -- 29.64 in1003.7 mb 0.00 in0.0 mm 0.00 in0.0 mm 0.74 in18.8 mm
02:30 PM 60.2°F15.7°C 57.9°F14.4°C 92% Calm Calm -- 29.65 in1004.1 mb 0.00 in0.0 mm 0.00 in0.0 mm 0.74 in18.8 mm
02:25 PM 59.4°F15.2°C 57.0°F13.9°C 92% Calm Calm -- 29.66 in1004.4 mb 0.00 in0.0 mm 0.00 in0.0 mm 0.74 in18.8 mm
02:20 PM 59.0°F15.0°C 56.7°F13.7°C 92% Calm Calm -- 29.66 in1004.4 mb 0.00 in0.0 mm 0.00 in0.0 mm 0.74 in18.8 mm
02:15 PM 58.5°F14.7°C 56.5°F13.6°C 93% Calm Calm -- 29.66 in1004.4 mb 0.00 in0.0 mm 0.00 in0.0 mm 0.74 in18.8 mm
02:10 PM 58.2°F14.6°C 56.3°F13.5°C 93% Calm Calm -- 29.66 in1004.4 mb 0.00 in0.0 mm 0.00 in0.0 mm 0.74 in18.8 mm
02:05 PM 57.9°F14.4°C 55.9°F13.3°C 93% Calm Calm -- 29.67 in1004.7 mb 0.00 in0.0 mm 0.00 in0.0 mm 0.74 in18.8 mm
02:00 PM 57.6°F14.2°C 55.6°F13.1°C 93% Calm Calm -- 29.67 in1004.7 mb 0.00 in0.0 mm 0.00 in0.0 mm 0.74 in18.8 mm
01:55 PM 57.5°F14.2°C 55.6°F13.1°C 93% Calm Calm -- 29.68 in1005.1 mb 0.00 in0.0 mm 0.00 in0.0 mm 0.74 in18.8 mm
01:50 PM 57.5°F14.2°C 55.6°F13.1°C 93% Calm Calm -- 29.67 in1004.7 mb 0.00 in0.0 mm 0.00 in0.0 mm 0.74 in18.8 mm
01:45 PM 57.5°F14.2°C 55.6°F13.1°C 93% Calm Calm -- 29.67 in1004.7 mb 0.00 in0.0 mm 0.00 in0.0 mm 0.74 in18.8 mm
01:40 PM 57.3°F14.1°C 55.4°F13.0°C 93% Calm Calm -- 29.67 in1004.7 mb 0.00 in0.0 mm 0.00 in0.0 mm 0.74 in18.8 mm
01:35 PM 57.0°F13.9°C 55.0°F12.8°C 93% Calm Calm -- 29.67 in1004.7 mb 0.00 in0.0 mm 0.00 in0.0 mm 0.74 in18.8 mm
01:30 PM 56.8°F13.8°C 54.9°F12.7°C 93% Calm Calm -- 29.67 in1004.7 mb 0.00 in0.0 mm 0.00 in0.0 mm 0.74 in18.8 mm
01:25 PM 56.3°F13.5°C 54.7°F12.6°C 94% Calm Calm -- 29.68 in1005.1 mb 0.00 in0.0 mm 0.00 in0.0 mm 0.74 in18.8 mm
01:20 PM 56.0°F13.3°C 54.3°F12.4°C 94% Calm Calm -- 29.68 in1005.1 mb 0.00 in0.0 mm 0.00 in0.0 mm 0.74 in18.8 mm
01:15 PM 55.6°F13.1°C 54.0°F12.2°C 94% Calm Calm -- 29.69 in1005.4 mb 0.00 in0.0 mm 0.00 in0.0 mm 0.74 in18.8 mm
01:10 PM 55.3°F12.9°C 53.2°F11.8°C 93% Calm Calm -- 29.69 in1005.4 mb 0.00 in0.0 mm 0.00 in0.0 mm 0.74 in18.8 mm
01:05 PM 55.2°F12.9°C 53.6°F12.0°C 94% Calm Calm -- 29.69 in1005.4 mb 0.00 in0.0 mm 0.00 in0.0 mm 0.74 in18.8 mm
01:00 PM 55.0°F12.8°C 53.4°F11.9°C 94% Calm Calm -- 29.69 in1005.4 mb 0.00 in0.0 mm 0.00 in0.0 mm 0.74 in18.8 mm
12:55 PM 54.8°F12.7°C 53.2°F11.8°C 94% Calm Calm -- 29.69 in1005.4 mb 0.00 in0.0 mm 0.00 in0.0 mm 0.74 in18.8 mm
12:50 PM 54.5°F12.5°C 52.9°F11.6°C 94% Calm Calm -- 29.70 in1005.8 mb 0.00 in0.0 mm 0.00 in0.0 mm 0.74 in18.8 mm
12:45 PM 54.2°F12.3°C 52.5°F11.4°C 94% Calm Calm -- 29.69 in1005.4 mb 0.00 in0.0 mm 0.00 in0.0 mm 0.74 in18.8 mm
12:40 PM 53.9°F12.2°C 52.3°F11.3°C 94% Calm Calm -- 29.70 in1005.8 mb 0.00 in0.0 mm 0.00 in0.0 mm 0.74 in18.8 mm
12:35 PM 53.7°F12.1°C 52.2°F11.2°C 94% Calm Calm -- 29.71 in1006.1 mb 0.00 in0.0 mm 0.00 in0.0 mm 0.74 in18.8 mm
12:30 PM 53.4°F11.9°C 51.8°F11.0°C 94% Calm Calm -- 29.71 in1006.1 mb 0.00 in0.0 mm 0.00 in0.0 mm 0.74 in18.8 mm
12:25 PM 53.3°F11.8°C 51.6°F10.9°C 94% Calm Calm -- 29.72 in1006.4 mb 0.00 in0.0 mm 0.00 in0.0 mm 0.74 in18.8 mm
12:20 PM 53.2°F11.8°C 51.6°F10.9°C 94% Calm Calm -- 29.73 in1006.8 mb 0.00 in0.0 mm 0.00 in0.0 mm 0.74 in18.8 mm
12:15 PM 53.2°F11.8°C 51.8°F11.0°C 95% Calm Calm -- 29.73 in1006.8 mb 0.00 in0.0 mm 0.00 in0.0 mm 0.74 in18.8 mm
12:10 PM 53.0°F11.7°C 51.4°F10.8°C 94% Calm Calm -- 29.73 in1006.8 mb 0.00 in0.0 mm 0.00 in0.0 mm 0.74 in18.8 mm
12:05 PM 52.9°F11.6°C 51.3°F10.7°C 94% Calm Calm -- 29.73 in1006.8 mb 0.00 in0.0 mm 0.00 in0.0 mm 0.74 in18.8 mm
12:00 PM 52.7°F11.5°C 51.3°F10.7°C 95% Calm Calm -- 29.74 in1007.1 mb 0.00 in0.0 mm 0.00 in0.0 mm 0.74 in18.8 mm
11:55 AM 52.7°F11.5°C 51.3°F10.7°C 95% Calm Calm -- 29.74 in1007.1 mb 0.00 in0.0 mm 0.00 in0.0 mm 0.74 in18.8 mm
11:50 AM 52.6°F11.4°C 51.1°F10.6°C 95% Calm Calm -- 29.74 in1007.1 mb 0.00 in0.0 mm 0.00 in0.0 mm 0.74 in18.8 mm
11:45 AM 52.5°F11.4°C 51.1°F10.6°C 95% Calm Calm -- 29.74 in1007.1 mb 0.00 in0.0 mm 0.00 in0.0 mm 0.74 in18.8 mm
11:40 AM 52.2°F11.2°C 50.7°F10.4°C 95% Calm Calm -- 29.74 in1007.1 mb 0.00 in0.0 mm 0.00 in0.0 mm 0.74 in18.8 mm
11:35 AM 52.0°F11.1°C 50.5°F10.3°C 95% Calm Calm -- 29.75 in1007.5 mb 0.00 in0.0 mm 0.00 in0.0 mm 0.74 in18.8 mm
11:30 AM 51.7°F10.9°C 50.2°F10.1°C 95% Calm Calm -- 29.76 in1007.8 mb 0.00 in0.0 mm 0.00 in0.0 mm 0.74 in18.8 mm
11:25 AM 51.4°F10.8°C 50.0°F10.0°C 95% Calm Calm -- 29.76 in1007.8 mb 0.00 in0.0 mm 0.00 in0.0 mm 0.74 in18.8 mm
11:20 AM 51.1°F10.6°C 49.6°F9.8°C 95% Calm Calm -- 29.77 in1008.1 mb 0.00 in0.0 mm 0.00 in0.0 mm 0.74 in18.8 mm
11:15 AM 51.0°F10.6°C 49.6°F9.8°C 95% Calm Calm -- 29.77 in1008.1 mb 0.00 in0.0 mm 0.00 in0.0 mm 0.74 in18.8 mm
11:10 AM 51.0°F10.6°C 49.6°F9.8°C 95% Calm Calm -- 29.77 in1008.1 mb 0.00 in0.0 mm 0.00 in0.0 mm 0.74 in18.8 mm
11:05 AM 50.9°F10.5°C 49.5°F9.7°C 95% Calm Calm -- 29.77 in1008.1 mb 0.00 in0.0 mm 0.00 in0.0 mm 0.74 in18.8 mm
11:00 AM 50.8°F10.4°C 49.3°F9.6°C 95% Calm Calm -- 29.77 in1008.1 mb 0.00 in0.0 mm 0.00 in0.0 mm 0.74 in18.8 mm
10:55 AM 50.7°F10.4°C 49.3°F9.6°C 95% Calm Calm -- 29.77 in1008.1 mb 0.00 in0.0 mm 0.00 in0.0 mm 0.74 in18.8 mm
10:50 AM 50.5°F10.3°C 48.9°F9.4°C 94% Calm Calm -- 29.77 in1008.1 mb 0.00 in0.0 mm 0.00 in0.0 mm 0.74 in18.8 mm
10:45 AM 50.3°F10.2°C 48.7°F9.3°C 94% Calm Calm -- 29.78 in1008.5 mb 0.00 in0.0 mm 0.00 in0.0 mm 0.74 in18.8 mm
10:40 AM 50.2°F10.1°C 48.7°F9.3°C 95% Calm Calm -- 29.77 in1008.1 mb 0.00 in0.0 mm 0.00 in0.0 mm 0.74 in18.8 mm
10:35 AM 50.1°F10.1°C 48.7°F9.3°C 95% Calm Calm -- 29.78 in1008.5 mb 0.00 in0.0 mm 0.00 in0.0 mm 0.74 in18.8 mm
10:30 AM 50.0°F10.0°C 48.4°F9.1°C 94% Calm Calm -- 29.78 in1008.5 mb 0.00 in0.0 mm 0.00 in0.0 mm 0.74 in18.8 mm
10:25 AM 49.9°F9.9°C 48.2°F9.0°C 94% Calm Calm -- 29.78 in1008.5 mb 0.00 in0.0 mm 0.00 in0.0 mm 0.74 in18.8 mm
10:20 AM 49.7°F9.8°C 48.0°F8.9°C 94% Calm Calm -- 29.78 in1008.5 mb 0.00 in0.0 mm 0.00 in0.0 mm 0.74 in18.8 mm
10:15 AM 49.6°F9.8°C 48.2°F9.0°C 95% Calm Calm -- 29.79 in1008.8 mb 0.00 in0.0 mm 0.00 in0.0 mm 0.74 in18.8 mm
10:10 AM 49.5°F9.7°C 48.0°F8.9°C 95% Calm Calm -- 29.79 in1008.8 mb 0.00 in0.0 mm 0.00 in0.0 mm 0.74 in18.8 mm
10:05 AM 49.4°F9.7°C 48.0°F8.9°C 95% Calm Calm -- 29.79 in1008.8 mb 0.00 in0.0 mm 0.00 in0.0 mm 0.74 in18.8 mm
10:00 AM 49.3°F9.6°C 47.7°F8.7°C 94% Calm Calm -- 29.79 in1008.8 mb 0.00 in0.0 mm 0.00 in0.0 mm 0.74 in18.8 mm
09:55 AM 49.2°F9.6°C 47.7°F8.7°C 94% Calm Calm -- 29.79 in1008.8 mb 0.00 in0.0 mm 0.00 in0.0 mm 0.74 in18.8 mm
09:50 AM 49.0°F9.4°C 47.5°F8.6°C 95% Calm Calm -- 29.79 in1008.8 mb 0.00 in0.0 mm 0.00 in0.0 mm 0.74 in18.8 mm
09:45 AM 48.9°F9.4°C 47.5°F8.6°C 95% Calm Calm -- 29.79 in1008.8 mb 0.00 in0.0 mm 0.00 in0.0 mm 0.74 in18.8 mm
09:40 AM 48.8°F9.3°C 47.3°F8.5°C 95% Calm Calm -- 29.79 in1008.8 mb 0.00 in0.0 mm 0.00 in0.0 mm 0.74 in18.8 mm
09:35 AM 48.7°F9.3°C 47.1°F8.4°C 94% Calm Calm -- 29.80 in1009.1 mb 0.00 in0.0 mm 0.00 in0.0 mm 0.74 in18.8 mm
09:30 AM 48.6°F9.2°C 46.9°F8.3°C 94% Calm Calm -- 29.80 in1009.1 mb 0.00 in0.0 mm 0.00 in0.0 mm 0.74 in18.8 mm
09:25 AM 48.4°F9.1°C 46.8°F8.2°C 94% Calm Calm -- 29.80 in1009.1 mb 0.00 in0.0 mm 0.00 in0.0 mm 0.74 in18.8 mm
09:20 AM 48.4°F9.1°C 46.8°F8.2°C 94% Calm Calm -- 29.81 in1009.5 mb 0.00 in0.0 mm 0.00 in0.0 mm 0.74 in18.8 mm
09:15 AM 48.2°F9.0°C 46.6°F8.1°C 94% Calm Calm -- 29.81 in1009.5 mb 0.00 in0.0 mm 0.00 in0.0 mm 0.74 in18.8 mm
09:10 AM 48.2°F9.0°C 46.6°F8.1°C 94% Calm Calm -- 29.81 in1009.5 mb 0.00 in0.0 mm 0.00 in0.0 mm 0.74 in18.8 mm
09:05 AM 48.0°F8.9°C 46.4°F8.0°C 94% Calm Calm -- 29.81 in1009.5 mb 0.00 in0.0 mm 0.00 in0.0 mm 0.74 in18.8 mm
09:00 AM 48.0°F8.9°C 46.4°F8.0°C 94% Calm Calm -- 29.81 in1009.5 mb 0.00 in0.0 mm 0.00 in0.0 mm 0.74 in18.8 mm
08:55 AM 47.9°F8.8°C 46.2°F7.9°C 94% Calm Calm -- 29.80 in1009.1 mb 0.00 in0.0 mm 0.00 in0.0 mm 0.74 in18.8 mm
08:50 AM 47.8°F8.8°C 46.2°F7.9°C 94% Calm Calm -- 29.80 in1009.1 mb 0.00 in0.0 mm 0.00 in0.0 mm 0.74 in18.8 mm
08:45 AM 47.8°F8.8°C 46.2°F7.9°C 94% Calm Calm -- 29.80 in1009.1 mb 0.00 in0.0 mm 0.00 in0.0 mm 0.74 in18.8 mm
08:40 AM 47.7°F8.7°C 46.0°F7.8°C 94% Calm Calm -- 29.80 in1009.1 mb 0.00 in0.0 mm 0.00 in0.0 mm 0.74 in18.8 mm
08:35 AM 47.6°F8.7°C 46.0°F7.8°C 94% Calm Calm -- 29.79 in1008.8 mb 0.00 in0.0 mm 0.00 in0.0 mm 0.74 in18.8 mm
08:30 AM 47.6°F8.7°C 46.0°F7.8°C 94% Calm Calm -- 29.79 in1008.8 mb 0.00 in0.0 mm 0.00 in0.0 mm 0.74 in18.8 mm
08:25 AM 47.5°F8.6°C 45.9°F7.7°C 94% Calm Calm -- 29.79 in1008.8 mb 0.00 in0.0 mm 0.00 in0.0 mm 0.74 in18.8 mm
08:20 AM 47.5°F8.6°C 45.9°F7.7°C 94% Calm Calm -- 29.79 in1008.8 mb 0.00 in0.0 mm 0.00 in0.0 mm 0.74 in18.8 mm
08:15 AM 47.5°F8.6°C 45.9°F7.7°C 94% Calm Calm -- 29.80 in1009.1 mb 0.00 in0.0 mm 0.00 in0.0 mm 0.74 in18.8 mm
08:10 AM 47.4°F8.6°C 45.9°F7.7°C 94% Calm Calm -- 29.80 in1009.1 mb 0.00 in0.0 mm 0.00 in0.0 mm 0.74 in18.8 mm
08:05 AM 47.3°F8.5°C 45.7°F7.6°C 94% Calm Calm -- 29.80 in1009.1 mb 0.00 in0.0 mm 0.00 in0.0 mm 0.74 in18.8 mm
08:00 AM 47.2°F8.4°C 45.5°F7.5°C 94% Calm Calm -- 29.81 in1009.5 mb 0.00 in0.0 mm 0.00 in0.0 mm 0.74 in18.8 mm
07:55 AM 47.2°F8.4°C 45.5°F7.5°C 94% Calm Calm -- 29.81 in1009.5 mb 0.00 in0.0 mm 0.00 in0.0 mm 0.74 in18.8 mm
07:50 AM 47.1°F8.4°C 45.5°F7.5°C 94% Calm Calm -- 29.81 in1009.5 mb 0.00 in0.0 mm 0.00 in0.0 mm 0.74 in18.8 mm
07:45 AM 47.1°F8.4°C 45.5°F7.5°C 94% Calm Calm -- 29.82 in1009.8 mb 0.00 in0.0 mm 0.00 in0.0 mm 0.74 in18.8 mm
07:40 AM 47.0°F8.3°C 45.3°F7.4°C 94% Calm Calm -- 29.82 in1009.8 mb 0.00 in0.0 mm 0.00 in0.0 mm 0.74 in18.8 mm
07:35 AM 47.0°F8.3°C 45.3°F7.4°C 94% Calm Calm -- 29.82 in1009.8 mb 0.00 in0.0 mm 0.00 in0.0 mm 0.74 in18.8 mm
07:30 AM 46.9°F8.3°C 45.3°F7.4°C 94% Calm Calm -- 29.82 in1009.8 mb 0.00 in0.0 mm 0.00 in0.0 mm 0.74 in18.8 mm
07:25 AM 46.9°F8.3°C 45.3°F7.4°C 94% Calm Calm -- 29.81 in1009.5 mb 0.00 in0.0 mm 0.00 in0.0 mm 0.74 in18.8 mm
07:20 AM 46.8°F8.2°C 45.1°F7.3°C 94% Calm Calm -- 29.82 in1009.8 mb 0.00 in0.0 mm 0.00 in0.0 mm 0.74 in18.8 mm
07:15 AM 46.8°F8.2°C 45.1°F7.3°C 94% Calm Calm -- 29.81 in1009.5 mb 0.00 in0.0 mm 0.00 in0.0 mm 0.74 in18.8 mm
07:10 AM 46.7°F8.2°C 45.1°F7.3°C 94% Calm Calm -- 29.81 in1009.5 mb 0.00 in0.0 mm 0.00 in0.0 mm 0.74 in18.8 mm
07:05 AM 46.7°F8.2°C 45.1°F7.3°C 94% Calm Calm -- 29.81 in1009.5 mb 0.00 in0.0 mm 0.00 in0.0 mm 0.74 in18.8 mm
07:00 AM 46.6°F8.1°C 45.0°F7.2°C 94% Calm Calm -- 29.82 in1009.8 mb 0.00 in0.0 mm 0.00 in0.0 mm 0.74 in18.8 mm
06:55 AM 46.6°F8.1°C 45.0°F7.2°C 94% Calm Calm -- 29.81 in1009.5 mb 0.00 in0.0 mm 0.00 in0.0 mm 0.74 in18.8 mm
06:50 AM 46.6°F8.1°C 45.0°F7.2°C 94% Calm Calm -- 29.80 in1009.1 mb 0.00 in0.0 mm 0.00 in0.0 mm 0.74 in18.8 mm
06:45 AM 46.6°F8.1°C 45.0°F7.2°C 94% Calm Calm -- 29.80 in1009.1 mb 0.00 in0.0 mm 0.00 in0.0 mm 0.74 in18.8 mm
06:40 AM 46.6°F8.1°C 45.0°F7.2°C 94% Calm Calm -- 29.81 in1009.5 mb 0.00 in0.0 mm 0.00 in0.0 mm 0.74 in18.8 mm
06:35 AM 46.6°F8.1°C 45.0°F7.2°C 94% Calm Calm -- 29.81 in1009.5 mb 0.00 in0.0 mm 0.00 in0.0 mm 0.74 in18.8 mm
06:30 AM 46.6°F8.1°C 45.0°F7.2°C 94% Calm Calm -- 29.81 in1009.5 mb 0.00 in0.0 mm 0.00 in0.0 mm 0.74 in18.8 mm
06:25 AM 46.6°F8.1°C 45.0°F7.2°C 94% Calm Calm -- 29.82 in1009.8 mb 0.00 in0.0 mm 0.00 in0.0 mm 0.74 in18.8 mm
06:20 AM 46.6°F8.1°C 45.0°F7.2°C 94% Calm Calm -- 29.82 in1009.8 mb 0.00 in0.0 mm 0.00 in0.0 mm 0.74 in18.8 mm
06:15 AM 46.7°F8.2°C 45.1°F7.3°C 94% Calm Calm -- 29.82 in1009.8 mb 0.00 in0.0 mm 0.00 in0.0 mm 0.74 in18.8 mm
06:10 AM 46.7°F8.2°C 45.1°F7.3°C 94% Calm Calm -- 29.82 in1009.8 mb 0.00 in0.0 mm 0.00 in0.0 mm 0.74 in18.8 mm
06:05 AM 46.7°F8.2°C 45.1°F7.3°C 94% Calm Calm -- 29.82 in1009.8 mb 0.00 in0.0 mm 0.00 in0.0 mm 0.74 in18.8 mm
06:00 AM 46.7°F8.2°C 45.1°F7.3°C 94% Calm Calm -- 29.82 in1009.8 mb 0.00 in0.0 mm 0.00 in0.0 mm 0.74 in18.8 mm
05:55 AM 46.7°F8.2°C 45.1°F7.3°C 94% Calm Calm -- 29.82 in1009.8 mb 0.00 in0.0 mm 0.00 in0.0 mm 0.74 in18.8 mm
05:50 AM 46.8°F8.2°C 45.1°F7.3°C 94% Calm Calm -- 29.82 in1009.8 mb 0.01 in0.3 mm 0.00 in0.0 mm 0.74 in18.8 mm
05:45 AM 46.8°F8.2°C 45.1°F7.3°C 94% Calm Calm -- 29.82 in1009.8 mb 0.01 in0.3 mm 0.00 in0.0 mm 0.74 in18.8 mm
05:40 AM 46.9°F8.3°C 45.3°F7.4°C 94% Calm Calm -- 29.83 in1010.2 mb 0.01 in0.3 mm 0.00 in0.0 mm 0.74 in18.8 mm
05:35 AM 46.9°F8.3°C 45.3°F7.4°C 94% Calm Calm -- 29.82 in1009.8 mb 0.01 in0.3 mm 0.00 in0.0 mm 0.74 in18.8 mm
05:30 AM 46.9°F8.3°C 45.3°F7.4°C 94% Calm Calm -- 29.83 in1010.2 mb 0.01 in0.3 mm 0.00 in0.0 mm 0.74 in18.8 mm
05:25 AM 46.8°F8.2°C 45.1°F7.3°C 94% Calm Calm -- 29.85 in1010.8 mb 0.01 in0.3 mm 0.00 in0.0 mm 0.74 in18.8 mm
05:20 AM 46.9°F8.3°C 45.3°F7.4°C 94% Calm Calm -- 29.87 in1011.5 mb 0.01 in0.3 mm 0.00 in0.0 mm 0.74 in18.8 mm
05:15 AM 46.8°F8.2°C 45.1°F7.3°C 94% Calm Calm -- 29.86 in1011.2 mb 0.01 in0.3 mm 0.00 in0.0 mm 0.74 in18.8 mm
05:10 AM 46.8°F8.2°C 45.1°F7.3°C 94% Calm Calm -- 29.86 in1011.2 mb 0.01 in0.3 mm 0.00 in0.0 mm 0.74 in18.8 mm
05:05 AM 46.8°F8.2°C 45.1°F7.3°C 94% Calm Calm -- 29.87 in1011.5 mb 0.01 in0.3 mm 0.00 in0.0 mm 0.74 in18.8 mm
05:00 AM 46.8°F8.2°C 45.1°F7.3°C 94% Calm Calm -- 29.87 in1011.5 mb 0.02 in0.5 mm 0.00 in0.0 mm 0.74 in18.8 mm
04:55 AM 46.8°F8.2°C 45.1°F7.3°C 94% Calm Calm -- 29.87 in1011.5 mb 0.02 in0.5 mm 0.12 in3.0 mm 0.74 in18.8 mm
04:50 AM 46.8°F8.2°C 45.1°F7.3°C 94% Calm Calm -- 29.87 in1011.5 mb 0.01 in0.3 mm 0.00 in0.0 mm 0.73 in18.5 mm
04:45 AM 46.8°F8.2°C 45.1°F7.3°C 94% Calm Calm -- 29.88 in1011.9 mb 0.01 in0.3 mm 0.00 in0.0 mm 0.73 in18.5 mm
04:40 AM 46.7°F8.2°C 45.1°F7.3°C 94% Calm Calm -- 29.90 in1012.5 mb 0.01 in0.3 mm 0.00 in0.0 mm 0.73 in18.5 mm
04:35 AM 46.7°F8.2°C 45.1°F7.3°C 94% Calm Calm -- 29.89 in1012.2 mb 0.01 in0.3 mm 0.00 in0.0 mm 0.73 in18.5 mm
04:30 AM 46.7°F8.2°C 45.1°F7.3°C 94% Calm Calm -- 29.87 in1011.5 mb 0.02 in0.5 mm 0.00 in0.0 mm 0.73 in18.5 mm
04:25 AM 46.7°F8.2°C 45.1°F7.3°C 94% Calm Calm -- 29.87 in1011.5 mb 0.02 in0.5 mm 0.00 in0.0 mm 0.73 in18.5 mm
04:20 AM 46.7°F8.2°C 45.1°F7.3°C 94% Calm Calm -- 29.88 in1011.9 mb 0.03 in0.8 mm 0.00 in0.0 mm 0.73 in18.5 mm
04:15 AM 46.7°F8.2°C 45.1°F7.3°C 94% Calm Calm -- 29.88 in1011.9 mb 0.03 in0.8 mm 0.00 in0.0 mm 0.73 in18.5 mm
04:10 AM 46.7°F8.2°C 45.1°F7.3°C 94% Calm Calm -- 29.87 in1011.5 mb 0.04 in1.0 mm 0.00 in0.0 mm 0.73 in18.5 mm
04:05 AM 46.7°F8.2°C 45.1°F7.3°C 94% Calm Calm -- 29.87 in1011.5 mb 0.04 in1.0 mm 0.00 in0.0 mm 0.73 in18.5 mm
04:00 AM 46.7°F8.2°C 45.1°F7.3°C 94% Calm Calm -- 29.86 in1011.2 mb 0.04 in1.0 mm 0.00 in0.0 mm 0.72 in18.3 mm
03:55 AM 46.8°F8.2°C 45.1°F7.3°C 94% Calm Calm -- 29.86 in1011.2 mb 0.05 in1.3 mm 0.00 in0.0 mm 0.72 in18.3 mm
03:50 AM 46.8°F8.2°C 45.1°F7.3°C 94% Calm Calm -- 29.87 in1011.5 mb 0.06 in1.5 mm 0.00 in0.0 mm 0.72 in18.3 mm
03:45 AM 46.8°F8.2°C 45.1°F7.3°C 94% Calm Calm -- 29.87 in1011.5 mb 0.07 in1.8 mm 0.00 in0.0 mm 0.72 in18.3 mm
03:40 AM 46.9°F8.3°C 45.3°F7.4°C 94% Calm Calm -- 29.88 in1011.9 mb 0.08 in2.0 mm 0.00 in0.0 mm 0.72 in18.3 mm
03:35 AM 46.9°F8.3°C 45.3°F7.4°C 94% Calm Calm -- 29.88 in1011.9 mb 0.08 in2.0 mm 0.00 in0.0 mm 0.72 in18.3 mm
03:30 AM 46.9°F8.3°C 45.3°F7.4°C 94% Calm Calm -- 29.87 in1011.5 mb 0.08 in2.0 mm 0.00 in0.0 mm 0.71 in18.0 mm
03:25 AM 46.9°F8.3°C 45.3°F7.4°C 94% Calm Calm -- 29.87 in1011.5 mb 0.09 in2.3 mm 0.12 in3.0 mm 0.71 in18.0 mm
03:20 AM 46.9°F8.3°C 45.3°F7.4°C 94% Calm Calm -- 29.87 in1011.5 mb 0.08 in2.0 mm 0.00 in0.0 mm 0.70 in17.8 mm
03:15 AM 47.0°F8.3°C 45.3°F7.4°C 94% Calm Calm -- 29.86 in1011.2 mb 0.09 in2.3 mm 0.00 in0.0 mm 0.70 in17.8 mm
03:10 AM 47.0°F8.3°C 45.3°F7.4°C 94% Calm Calm -- 29.84 in1010.5 mb 0.09 in2.3 mm 0.00 in0.0 mm 0.69 in17.5 mm
03:05 AM 47.1°F8.4°C 45.5°F7.5°C 94% Calm Calm -- 29.84 in1010.5 mb 0.11 in2.8 mm 0.00 in0.0 mm 0.69 in17.5 mm
03:00 AM 47.2°F8.4°C 45.5°F7.5°C 94% Calm Calm -- 29.84 in1010.5 mb 0.11 in2.8 mm 0.00 in0.0 mm 0.68 in17.3 mm
02:55 AM 47.3°F8.5°C 45.7°F7.6°C 94% Calm Calm -- 29.85 in1010.8 mb 0.12 in3.0 mm 0.00 in0.0 mm 0.67 in17.0 mm
02:50 AM 47.4°F8.6°C 45.9°F7.7°C 94% Calm Calm -- 29.84 in1010.5 mb 0.12 in3.0 mm 0.00 in0.0 mm 0.66 in16.8 mm
02:45 AM 47.5°F8.6°C 45.9°F7.7°C 94% Calm Calm -- 29.84 in1010.5 mb 0.13 in3.3 mm 0.00 in0.0 mm 0.65 in16.5 mm
02:40 AM 47.6°F8.7°C 46.0°F7.8°C 94% Calm Calm -- 29.84 in1010.5 mb 0.14 in3.6 mm 0.00 in0.0 mm 0.64 in16.3 mm
02:35 AM 47.6°F8.7°C 46.0°F7.8°C 94% Calm Calm -- 29.85 in1010.8 mb 0.15 in3.8 mm 0.00 in0.0 mm 0.64 in16.3 mm
02:30 AM 47.7°F8.7°C 46.0°F7.8°C 94% Calm Calm -- 29.86 in1011.2 mb 0.16 in4.1 mm 0.00 in0.0 mm 0.63 in16.0 mm
02:25 AM 47.8°F8.8°C 46.2°F7.9°C 94% Calm Calm -- 29.87 in1011.5 mb 0.16 in4.1 mm 0.00 in0.0 mm 0.62 in15.7 mm
02:20 AM 47.9°F8.8°C 46.2°F7.9°C 94% Calm Calm -- 29.88 in1011.9 mb 0.22 in5.6 mm 0.00 in0.0 mm 0.62 in15.7 mm
02:15 AM 47.9°F8.8°C 46.2°F7.9°C 94% Calm Calm -- 29.89 in1012.2 mb 0.23 in5.8 mm 0.00 in0.0 mm 0.61 in15.5 mm
02:10 AM 48.0°F8.9°C 46.0°F7.8°C 93% Calm Calm -- 29.88 in1011.9 mb 0.26 in6.6 mm 0.00 in0.0 mm 0.60 in15.2 mm
02:05 AM 48.2°F9.0°C 46.2°F7.9°C 93% Calm Calm -- 29.89 in1012.2 mb 0.28 in7.1 mm 0.00 in0.0 mm 0.58 in14.7 mm
02:00 AM 48.4°F9.1°C 46.4°F8.0°C 93% Calm Calm -- 29.89 in1012.2 mb 0.40 in10.2 mm 0.00 in0.0 mm 0.57 in14.5 mm
01:55 AM 48.4°F9.1°C 46.4°F8.0°C 93% Calm Calm -- 29.90 in1012.5 mb 0.46 in11.7 mm 0.00 in0.0 mm 0.55 in14.0 mm
01:50 AM 48.5°F9.2°C 46.6°F8.1°C 93% Calm Calm -- 29.91 in1012.9 mb 0.46 in11.7 mm 0.24 in6.1 mm 0.54 in13.7 mm
01:45 AM 48.6°F9.2°C 46.6°F8.1°C 93% Calm Calm -- 29.91 in1012.9 mb 0.44 in11.2 mm 0.00 in0.0 mm 0.52 in13.2 mm
01:40 AM 48.7°F9.3°C 46.8°F8.2°C 93% Calm Calm -- 29.92 in1013.2 mb 0.44 in11.2 mm 0.00 in0.0 mm 0.50 in12.7 mm
01:35 AM 48.8°F9.3°C 46.8°F8.2°C 93% Calm Calm -- 29.93 in1013.5 mb 0.44 in11.2 mm 0.12 in3.0 mm 0.49 in12.4 mm
01:30 AM 49.0°F9.4°C 46.9°F8.3°C 93% Calm Calm -- 29.93 in1013.5 mb 0.43 in10.9 mm 0.00 in0.0 mm 0.47 in11.9 mm
01:25 AM 49.1°F9.5°C 46.9°F8.3°C 92% Calm Calm -- 29.93 in1013.5 mb 0.43 in10.9 mm 0.60 in15.2 mm 0.46 in11.7 mm
01:20 AM 49.3°F9.6°C 47.1°F8.4°C 92% Calm Calm -- 29.97 in1014.9 mb 0.38 in9.7 mm 0.12 in3.0 mm 0.40 in10.2 mm
01:15 AM 49.4°F9.7°C 47.3°F8.5°C 92% Calm Calm -- 29.96 in1014.6 mb 0.37 in9.4 mm 0.36 in9.1 mm 0.38 in9.7 mm
01:10 AM 49.6°F9.8°C 47.5°F8.6°C 92% Calm Calm -- 29.92 in1013.2 mb 0.34 in8.6 mm 0.48 in12.2 mm 0.34 in8.6 mm
01:05 AM 49.8°F9.9°C 47.7°F8.7°C 92% Calm Calm -- 29.95 in1014.2 mb 0.30 in7.6 mm 1.56 in39.6 mm 0.30 in7.6 mm
01:00 AM 49.9°F9.9°C 47.3°F8.5°C 91% Calm Calm -- 29.90 in1012.5 mb 0.17 in4.3 mm 0.09 in2.3 mm 0.17 in4.3 mm
12:55 AM 49.8°F9.9°C 47.3°F8.5°C 91% Calm Calm -- 29.91 in1012.9 mb 0.09 in2.3 mm 0.12 in3.0 mm 0.09 in2.3 mm
12:50 AM 49.7°F9.8°C 46.8°F8.2°C 90% Calm Calm -- 29.79 in1008.8 mb 0.08 in2.0 mm 0.00 in0.0 mm 0.08 in2.0 mm
12:45 AM 49.8°F9.9°C 46.9°F8.3°C 90% Calm Calm -- 29.76 in1007.8 mb 0.08 in2.0 mm 0.24 in6.1 mm 0.08 in2.0 mm
12:40 AM 50.1°F10.1°C 47.1°F8.4°C 89% Calm Calm -- 29.76 in1007.8 mb 0.06 in1.5 mm 0.12 in3.0 mm 0.06 in1.5 mm
12:35 AM 50.2°F10.1°C 47.1°F8.4°C 89% Calm Calm -- 29.76 in1007.8 mb 0.05 in1.3 mm 0.12 in3.0 mm 0.05 in1.3 mm
12:30 AM 50.5°F10.3°C 47.1°F8.4°C 88% Calm Calm -- 29.77 in1008.1 mb 0.04 in1.0 mm 0.12 in3.0 mm 0.04 in1.0 mm
12:25 AM 50.8°F10.4°C 46.9°F8.3°C 87% Calm Calm -- 29.79 in1008.8 mb 0.03 in0.8 mm 0.12 in3.0 mm 0.03 in0.8 mm
12:20 AM 51.1°F10.6°C 47.1°F8.4°C 86% Calm Calm -- 29.77 in1008.1 mb 0.02 in0.5 mm 0.12 in3.0 mm 0.02 in0.5 mm
12:15 AM 51.5°F10.8°C 47.1°F8.4°C 85% Calm Calm -- 29.78 in1008.5 mb 0.01 in0.3 mm 0.12 in3.0 mm 0.01 in0.3 mm
12:10 AM 51.7°F10.9°C 46.9°F8.3°C 84% Calm Calm -- 29.80 in1009.1 mb 0.00 in0.0 mm 0.00 in0.0 mm 0.00 in0.0 mm
12:05 AM 52.1°F11.2°C 47.5°F8.6°C 84% Calm Calm -- 29.80 in1009.1 mb 0.00 in0.0 mm 0.00 in0.0 mm 0.00 in0.0 mm
12:00 AM 52.4°F11.3°C 47.3°F8.5°C 83% Calm Calm -- 29.80 in1009.1 mb 0.00 in0.0 mm 0.00 in0.0 mm 0.00 in0.0 mm